createdAt,value
2022-08-26T00:00:57.431Z,98602.38
2022-08-26T00:03:59.755Z,98624.56
2022-08-26T00:07:11.347Z,98625.00
2022-08-26T00:10:50.251Z,98616.88
2022-08-26T00:13:52.157Z,98628.56
2022-08-26T00:17:27.486Z,98636.72
2022-08-26T00:20:40.659Z,98639.38
2022-08-26T00:23:46.919Z,98636.72
2022-08-26T00:26:52.863Z,98621.63
2022-08-26T00:29:54.711Z,98647.53
2022-08-26T00:33:02.829Z,98653.59
2022-08-26T00:36:05.442Z,98661.94
2022-08-26T00:39:31.889Z,98661.72
2022-08-26T00:42:36.936Z,98655.38
2022-08-26T00:46:18.598Z,98662.97
2022-08-26T00:49:31.152Z,98650.28
2022-08-26T00:52:33.636Z,98641.69
2022-08-26T00:55:41.947Z,98646.34
2022-08-26T00:59:00.257Z,98644.41
2022-08-26T01:02:06.650Z,98648.41
2022-08-26T01:10:11.936Z,98650.38
2022-08-26T01:13:21.157Z,98668.34
2022-08-26T01:16:25.807Z,98644.78
2022-08-26T01:20:00.304Z,98663.09
2022-08-26T01:23:59.535Z,98670.97
2022-08-26T01:27:09.733Z,98665.06
2022-08-26T01:30:18.215Z,98661.34
2022-08-26T01:33:25.130Z,98630.06
2022-08-26T01:36:28.704Z,98633.53
2022-08-26T01:39:37.063Z,98637.53
2022-08-26T01:42:44.625Z,98615.59
2022-08-26T01:46:21.502Z,98620.16
2022-08-26T01:49:34.398Z,98659.19
2022-08-26T01:52:39.827Z,98665.03
2022-08-26T01:55:52.965Z,98635.41
2022-08-26T01:59:03.404Z,98673.59
2022-08-26T02:02:05.799Z,98652.19
2022-08-26T02:05:11.133Z,98655.31
2022-08-26T02:08:14.212Z,98664.81
2022-08-26T02:11:43.019Z,98679.41
2022-08-26T02:14:50.398Z,98675.13
2022-08-26T02:17:53.301Z,98675.88
2022-08-26T02:20:57.516Z,98669.25
2022-08-26T02:24:15.598Z,98653.88
2022-08-26T02:27:32.281Z,98678.97
2022-08-26T02:30:34.743Z,98681.94
2022-08-26T02:33:37.858Z,98678.72
2022-08-26T02:36:45.174Z,98691.56
2022-08-26T02:39:47.240Z,98683.41
2022-08-26T02:42:56.048Z,98678.34
2022-08-26T02:46:06.712Z,98688.09
2022-08-26T02:53:01.948Z,98657.25
2022-08-26T02:56:08.611Z,98683.91
2022-08-26T02:59:12.653Z,98649.31
2022-08-26T03:02:16.860Z,98635.25
2022-08-26T03:05:28.375Z,98676.28
2022-08-26T03:08:30.351Z,98654.03
2022-08-26T03:11:33.341Z,98655.19
2022-08-26T03:14:41.107Z,98665.47
2022-08-26T03:17:57.215Z,98684.66
2022-08-26T03:21:09.180Z,98668.59
2022-08-26T03:24:15.689Z,98670.91
2022-08-26T03:27:17.714Z,98674.03
2022-08-26T03:30:38.586Z,98661.94
2022-08-26T03:33:47.376Z,98660.41
2022-08-26T03:36:51.872Z,98677.63
2022-08-26T03:39:53.608Z,98643.69
2022-08-26T03:42:59.503Z,98671.41
2022-08-26T03:46:05.688Z,98672.97
2022-08-26T03:49:08.142Z,98655.75
2022-08-26T03:52:19.302Z,98663.16
2022-08-26T03:55:25.398Z,98657.72
2022-08-26T03:58:54.220Z,98654.28
2022-08-26T04:01:59.032Z,98655.00
2022-08-26T04:05:00.774Z,98647.53
2022-08-26T04:08:11.676Z,98654.59
2022-08-26T04:11:20.164Z,98659.69
2022-08-26T04:14:25.957Z,98673.41
2022-08-26T04:17:29.708Z,98675.34
2022-08-26T04:20:39.329Z,98657.38
2022-08-26T04:23:50.351Z,98676.91
2022-08-26T04:26:52.581Z,98666.38
2022-08-26T04:30:00.016Z,98675.75
2022-08-26T04:33:13.175Z,98689.81
2022-08-26T04:36:58.644Z,98687.44
2022-08-26T04:40:00.533Z,98660.84
2022-08-26T04:43:05.796Z,98692.09
2022-08-26T04:46:13.679Z,98685.06
2022-08-26T04:49:16.112Z,98658.41
2022-08-26T04:52:23.031Z,98676.31
2022-08-26T04:55:39.757Z,98699.88
2022-08-26T04:58:52.437Z,98676.59
2022-08-26T05:02:07.036Z,98695.00
2022-08-26T05:05:10.698Z,98684.84
2022-08-26T05:08:14.940Z,98711.06
2022-08-26T05:11:17.439Z,98707.13
2022-08-26T05:14:23.844Z,98707.50
2022-08-26T05:17:33.466Z,98682.06
2022-08-26T05:20:44.039Z,98696.94
2022-08-26T05:23:48.299Z,98714.94
2022-08-26T05:26:54.627Z,98705.94
2022-08-26T05:29:58.435Z,98712.19
2022-08-26T05:33:00.286Z,98718.81
2022-08-26T05:36:11.978Z,98721.19
2022-08-26T05:39:15.244Z,98721.19
2022-08-26T05:42:18.212Z,98730.63
2022-08-26T05:45:24.226Z,98731.81
2022-08-26T05:48:25.952Z,98705.97
2022-08-26T05:51:37.133Z,98735.31
2022-08-26T05:54:39.974Z,98729.06
2022-08-26T05:57:42.879Z,98713.38
2022-08-26T06:00:45.256Z,98718.88
2022-08-26T06:03:50.101Z,98720.03
2022-08-26T06:06:55.070Z,98729.78
2022-08-26T06:10:21.380Z,98731.75
2022-08-26T06:13:21.576Z,98738.34
2022-08-26T06:16:24.569Z,98743.75
2022-08-26T06:19:34.520Z,98744.56
2022-08-26T06:23:12.139Z,98719.13
2022-08-26T06:26:16.617Z,98732.69
2022-08-26T06:29:24.184Z,98728.16
2022-08-26T06:32:26.682Z,98762.22
2022-08-26T06:35:28.469Z,98751.09
2022-08-26T06:38:30.992Z,98766.19
2022-08-26T06:41:34.726Z,98755.09
2022-08-26T06:44:36.523Z,98765.53
2022-08-26T06:47:38.181Z,98749.03
2022-08-26T06:50:40.997Z,98766.44
2022-08-26T06:53:48.555Z,98764.31
2022-08-26T06:56:50.385Z,98759.41
2022-08-26T06:59:52.650Z,98765.09
2022-08-26T07:02:54.308Z,98769.78
2022-08-26T07:06:02.654Z,98771.44
2022-08-26T07:09:09.703Z,98757.06
2022-08-26T07:12:11.967Z,98769.38
2022-08-26T07:15:13.720Z,98771.59
2022-08-26T07:18:17.409Z,98768.66
2022-08-26T07:21:21.131Z,98762.63
2022-08-26T07:24:23.715Z,98759.22
2022-08-26T07:27:30.351Z,98773.53
2022-08-26T07:30:32.201Z,98774.97
2022-08-26T07:33:34.456Z,98759.66
2022-08-26T07:36:36.530Z,98773.78
2022-08-26T07:39:40.378Z,98774.84
2022-08-26T07:42:43.463Z,98779.09
2022-08-26T07:45:45.856Z,98763.19
2022-08-26T07:48:53.627Z,98770.06
2022-08-26T07:51:56.752Z,98777.00
2022-08-26T07:55:01.667Z,98778.72
2022-08-26T07:58:04.470Z,98782.00
2022-08-26T08:01:07.638Z,98774.16
2022-08-26T08:04:12.403Z,98785.47
2022-08-26T08:07:15.652Z,98782.81
2022-08-26T08:10:22.156Z,98776.91
2022-08-26T08:13:28.013Z,98766.03
2022-08-26T08:16:32.361Z,98734.06
2022-08-26T08:19:37.014Z,98780.38
2022-08-26T08:22:41.289Z,98781.88
2022-08-26T08:25:44.751Z,98774.34
2022-08-26T08:28:47.845Z,98767.94
2022-08-26T08:31:56.819Z,98773.13
2022-08-26T08:35:00.219Z,98773.44
2022-08-26T08:38:04.281Z,98768.03
2022-08-26T08:41:06.490Z,98772.78
2022-08-26T08:44:19.232Z,98763.69
2022-08-26T08:47:24.167Z,98763.75
2022-08-26T08:50:45.729Z,98776.97
2022-08-26T08:53:54.609Z,98773.06
2022-08-26T08:57:07.173Z,98763.59
2022-08-26T09:00:13.999Z,98774.19
2022-08-26T09:03:40.529Z,98763.75
2022-08-26T09:06:44.397Z,98771.50
2022-08-26T09:09:52.058Z,98755.63
2022-08-26T09:12:54.507Z,98770.19
2022-08-26T09:16:15.904Z,98768.75
2022-08-26T09:19:40.392Z,98766.75
2022-08-26T09:22:44.313Z,98776.00
2022-08-26T09:25:49.622Z,98764.81
2022-08-26T09:29:03.639Z,98761.28
2022-08-26T09:32:21.957Z,98767.91
2022-08-26T09:35:28.539Z,98766.16
2022-08-26T09:38:34.468Z,98754.84
2022-08-26T09:41:37.128Z,98754.25
2022-08-26T09:44:54.447Z,98753.78
2022-08-26T09:47:57.904Z,98752.19
2022-08-26T09:51:07.225Z,98752.78
2022-08-26T09:54:30.463Z,98735.00
2022-08-26T09:57:44.854Z,98734.50
2022-08-26T10:00:58.000Z,98733.63
2022-08-26T10:04:20.946Z,98733.50
2022-08-26T10:07:44.455Z,98731.16
2022-08-26T10:10:46.923Z,98719.63
2022-08-26T10:13:59.569Z,98726.25
2022-08-26T10:17:14.561Z,98719.31
2022-08-26T10:20:35.324Z,98711.94
2022-08-26T10:23:42.770Z,98715.03
2022-08-26T10:26:49.725Z,98709.31
2022-08-26T10:29:57.246Z,98705.09
2022-08-26T10:33:12.926Z,98704.38
2022-08-26T10:36:52.325Z,98693.53
2022-08-26T10:40:07.999Z,98693.81
2022-08-26T10:43:16.998Z,98689.56
2022-08-26T10:46:22.547Z,98692.09
2022-08-26T10:49:29.398Z,98696.06
2022-08-26T10:52:51.381Z,98697.25
2022-08-26T10:56:19.223Z,98685.31
2022-08-26T10:59:43.650Z,98689.75
2022-08-26T11:02:52.122Z,98688.88
2022-08-26T11:06:16.571Z,98680.66
2022-08-26T11:09:45.857Z,98670.78
2022-08-26T11:12:49.465Z,98677.09
2022-08-26T11:15:54.179Z,98675.25
2022-08-26T11:18:56.075Z,98669.91
2022-08-26T11:22:06.787Z,98657.97
2022-08-26T11:25:11.976Z,98655.41
2022-08-26T11:28:34.283Z,98662.44
2022-08-26T11:31:39.202Z,98662.22
2022-08-26T11:34:52.972Z,98664.84
2022-08-26T11:38:00.530Z,98657.06
2022-08-26T11:41:09.966Z,98650.78
2022-08-26T11:44:16.134Z,98647.94
2022-08-26T11:47:27.302Z,98646.41
2022-08-26T11:50:38.860Z,98647.69
2022-08-26T11:53:47.351Z,98637.59
2022-08-26T11:56:53.151Z,98643.72
2022-08-26T11:59:56.610Z,98645.81
2022-08-26T12:03:06.919Z,98643.50
2022-08-26T12:06:43.336Z,98650.66
2022-08-26T12:09:57.547Z,98649.47
2022-08-26T12:13:01.701Z,98628.31
2022-08-26T12:16:03.696Z,98633.38
2022-08-26T12:19:27.599Z,98636.66
2022-08-26T12:22:36.087Z,98624.13
2022-08-26T12:25:38.919Z,98632.31
2022-08-26T12:29:19.708Z,98630.69
2022-08-26T12:32:24.903Z,98633.69
2022-08-26T12:35:28.902Z,98628.28
2022-08-26T12:38:45.025Z,98621.44
2022-08-26T12:41:53.849Z,98614.22
2022-08-26T12:45:06.560Z,98621.56
2022-08-26T12:48:30.323Z,98616.88
2022-08-26T12:51:33.115Z,98612.53
2022-08-26T12:54:56.849Z,98612.78
2022-08-26T12:58:23.566Z,98605.28
2022-08-26T13:01:25.946Z,98607.38
2022-08-26T13:04:39.816Z,98602.41
2022-08-26T13:07:41.511Z,98607.47
2022-08-26T13:10:47.763Z,98600.34
2022-08-26T13:14:10.539Z,98600.28
2022-08-26T13:17:12.207Z,98598.09
2022-08-26T13:20:14.699Z,98608.00
2022-08-26T13:23:17.413Z,98611.47
2022-08-26T13:26:20.128Z,98604.88
2022-08-26T13:29:23.871Z,98586.84
2022-08-26T13:32:27.948Z,98592.47
2022-08-26T13:35:29.968Z,98589.47
2022-08-26T13:38:33.099Z,98601.81
2022-08-26T13:41:36.756Z,98615.50
2022-08-26T13:44:39.237Z,98588.22
2022-08-26T13:47:40.938Z,98603.31
2022-08-26T13:50:43.402Z,98605.91
2022-08-26T13:53:45.712Z,98601.69
2022-08-26T14:00:58.285Z,98588.25
2022-08-26T14:04:00.138Z,98569.44
2022-08-26T14:07:02.114Z,98565.38
2022-08-26T14:10:04.484Z,98563.38
2022-08-26T14:13:07.683Z,98563.28
2022-08-26T14:16:13.851Z,98586.63
2022-08-26T14:19:16.317Z,98595.09
2022-08-26T14:22:21.364Z,98594.72
2022-08-26T14:25:24.102Z,98560.56
2022-08-26T14:31:29.830Z,98604.28
2022-08-26T14:34:32.847Z,98628.69
2022-08-26T14:37:35.158Z,98647.06
2022-08-26T14:40:39.403Z,98639.84
2022-08-26T14:43:49.381Z,98690.00
2022-08-26T14:46:53.015Z,98690.69
2022-08-26T14:49:57.758Z,98675.44
2022-08-26T14:53:19.707Z,98698.63
2022-08-26T14:59:50.529Z,98662.00
2022-08-26T15:06:21.155Z,98703.84
2022-08-26T15:09:24.670Z,98705.44
2022-08-26T15:12:26.784Z,98688.94
2022-08-26T15:15:29.686Z,98676.31
2022-08-26T15:18:31.891Z,98676.19
2022-08-26T15:21:37.034Z,98659.41
2022-08-26T15:24:38.814Z,98652.41
2022-08-26T15:27:43.587Z,98666.16
2022-08-26T15:30:46.992Z,98664.53
2022-08-26T15:33:49.465Z,98671.25
2022-08-26T15:36:52.378Z,98665.09
2022-08-26T15:39:59.936Z,98662.38
2022-08-26T15:43:25.626Z,98658.25
2022-08-26T15:46:38.714Z,98652.31
2022-08-26T15:49:41.278Z,98644.72
2022-08-26T15:52:42.945Z,98635.06
2022-08-26T15:55:45.009Z,98640.41
2022-08-26T15:58:47.013Z,98624.44
2022-08-26T16:01:49.656Z,98624.53
2022-08-26T16:04:51.686Z,98623.94
2022-08-26T16:07:56.202Z,98617.09
2022-08-26T16:11:03.517Z,98620.56
2022-08-26T16:14:05.985Z,98629.56
2022-08-26T16:17:10.223Z,98617.81
2022-08-26T16:20:13.465Z,98601.31
2022-08-26T16:23:17.856Z,98620.56
2022-08-26T16:26:22.958Z,98616.50
2022-08-26T16:29:25.103Z,98619.00
2022-08-26T16:32:30.722Z,98614.03
2022-08-26T16:35:33.449Z,98627.06
2022-08-26T16:38:36.623Z,98640.34
2022-08-26T16:41:38.948Z,98632.03
2022-08-26T16:44:49.032Z,98630.84
2022-08-26T16:47:52.015Z,98637.50
2022-08-26T16:50:55.611Z,98621.88
2022-08-26T16:53:58.328Z,98646.59
2022-08-26T16:57:00.580Z,98650.19
2022-08-26T17:00:09.659Z,98662.03
2022-08-26T17:03:17.531Z,98650.19
2022-08-26T17:06:23.579Z,98637.31
2022-08-26T17:09:26.470Z,98651.06
2022-08-26T17:12:28.851Z,98637.00
2022-08-26T17:15:33.914Z,98656.56
2022-08-26T17:18:36.797Z,98655.56
2022-08-26T17:21:43.471Z,98682.25
2022-08-26T17:25:16.278Z,98701.13
2022-08-26T17:28:28.611Z,98671.44
2022-08-26T17:46:09.682Z,98731.16
2022-08-26T17:49:21.985Z,98702.28
2022-08-26T17:52:24.281Z,98690.56
2022-08-26T17:55:26.129Z,98724.47
2022-08-26T17:58:28.354Z,98726.88
2022-08-26T18:01:31.349Z,98692.16
2022-08-26T18:08:12.804Z,98754.06
2022-08-26T18:11:20.230Z,98753.94
2022-08-26T18:17:54.167Z,98743.16
2022-08-26T18:21:33.893Z,98757.66
2022-08-26T18:24:38.283Z,98710.28
2022-08-26T18:38:34.586Z,98727.88
2022-08-26T18:41:49.295Z,98747.88
2022-08-26T18:44:51.797Z,98758.03
2022-08-26T18:47:54.320Z,98766.63
2022-08-26T18:51:08.000Z,98759.19
2022-08-26T18:54:15.653Z,98707.91
2022-08-26T18:57:20.896Z,98748.94
2022-08-26T19:00:22.735Z,98749.75
2022-08-26T19:03:28.812Z,98758.72
2022-08-26T19:06:33.307Z,98774.38
2022-08-26T19:09:35.516Z,98786.88
2022-08-26T19:12:37.915Z,98786.09
2022-08-26T19:15:44.855Z,98776.28
2022-08-26T19:18:48.070Z,98784.16
2022-08-26T19:21:50.399Z,98770.47
2022-08-26T19:24:52.350Z,98792.78
2022-08-26T19:27:54.203Z,98784.56
2022-08-26T19:30:56.548Z,98789.25
2022-08-26T19:33:59.098Z,98784.19
2022-08-26T19:37:00.939Z,98804.97
2022-08-26T19:40:08.408Z,98817.50
2022-08-26T19:43:20.695Z,98813.97
2022-08-26T19:46:26.750Z,98830.03
2022-08-26T19:49:31.486Z,98835.50
2022-08-26T19:52:34.703Z,98814.00
2022-08-26T19:56:07.814Z,98819.47
2022-08-26T19:59:24.512Z,98803.47
2022-08-26T20:02:36.327Z,98781.13
2022-08-26T20:05:55.875Z,98812.81
2022-08-26T20:09:20.392Z,98805.38
2022-08-26T20:17:01.244Z,98840.66
2022-08-26T20:21:09.465Z,98819.47
2022-08-26T20:21:11.178Z,98844.59
2022-08-26T20:31:27.751Z,98821.44
2022-08-26T20:34:34.063Z,98842.59
2022-08-26T20:37:36.849Z,98842.59
2022-08-26T20:40:49.205Z,98853.94
2022-08-26T20:43:52.160Z,98850.41
2022-08-26T20:47:15.345Z,98838.69
2022-08-26T20:50:17.079Z,98844.91
2022-08-26T20:53:21.924Z,98811.25
2022-08-26T20:56:26.030Z,98827.69
2022-08-26T20:59:27.779Z,98824.56
2022-08-26T21:02:29.839Z,98846.50
2022-08-26T21:05:37.677Z,98836.31
2022-08-26T21:08:43.216Z,98836.31
2022-08-26T21:12:16.798Z,98823.78
2022-08-26T21:15:19.632Z,98796.38
2022-08-26T21:18:23.320Z,98848.47
2022-08-26T21:25:29.628Z,98822.63
2022-08-26T21:28:35.594Z,98846.91
2022-08-26T21:35:58.705Z,98816.75
2022-08-26T21:39:01.383Z,98846.13
2022-08-26T21:42:06.837Z,98802.66
2022-08-26T21:45:12.580Z,98844.94
2022-08-26T21:48:14.944Z,98843.78
2022-08-26T21:51:19.281Z,98853.56
2022-08-26T21:54:21.088Z,98859.44
2022-08-26T21:57:24.756Z,98863.75
2022-08-26T22:00:26.567Z,98868.03
2022-08-26T22:03:29.196Z,98868.03
2022-08-26T22:06:53.593Z,98846.09
2022-08-26T22:09:55.504Z,98840.22
2022-08-26T22:13:02.518Z,98860.59
2022-08-26T22:16:06.810Z,98880.53
2022-08-26T22:19:10.337Z,98870.72
2022-08-26T22:22:15.659Z,98890.31
2022-08-26T22:25:17.402Z,98889.91
2022-08-26T22:28:19.763Z,98897.00
2022-08-26T22:31:22.252Z,98900.13
2022-08-26T22:34:30.352Z,98888.78
2022-08-26T22:37:32.107Z,98902.88
2022-08-26T22:40:35.456Z,98894.66
2022-08-26T22:43:38.538Z,98911.91
2022-08-26T22:46:41.764Z,98908.75
2022-08-26T22:58:41.916Z,98894.66
2022-08-26T23:05:23.256Z,98882.13
2022-08-26T23:08:26.081Z,98893.09
2022-08-26T23:12:04.394Z,98880.94
2022-08-26T23:15:09.172Z,98885.25
2022-08-26T23:18:12.419Z,98880.13
2022-08-26T23:21:17.567Z,98882.06
2022-08-26T23:24:20.779Z,98882.44
2022-08-26T23:27:22.555Z,98885.59
2022-08-26T23:30:26.660Z,98885.59
2022-08-26T23:33:48.721Z,98879.72
2022-08-26T23:36:52.727Z,98884.81
2022-08-26T23:39:55.587Z,98879.31
2022-08-26T23:42:59.444Z,98882.47
2022-08-26T23:46:01.290Z,98882.03
2022-08-26T23:49:04.508Z,98875.38
2022-08-26T23:52:26.383Z,98876.94
2022-08-26T23:55:28.363Z,98876.13
2022-08-26T23:58:30.135Z,98887.09
